createdAt,value
2019-01-25T00:02:10.997Z,-2.80
2019-01-25T00:04:41.239Z,-2.80
2019-01-25T00:07:10.553Z,-2.80
2019-01-25T00:09:39.928Z,-2.90
2019-01-25T00:12:09.077Z,-2.80
2019-01-25T00:14:39.343Z,-2.90
2019-01-25T00:17:08.473Z,-2.90
2019-01-25T00:19:37.665Z,-2.90
2019-01-25T00:22:07.647Z,-2.90
2019-01-25T00:24:36.703Z,-2.90
2019-01-25T00:27:05.888Z,-2.90
2019-01-25T00:29:35.133Z,-3.00
2019-01-25T00:32:04.489Z,-2.90
2019-01-25T00:34:33.751Z,-2.90
2019-01-25T00:37:03.168Z,-2.80
2019-01-25T00:39:33.629Z,-2.80
2019-01-25T00:42:02.762Z,-2.90
2019-01-25T00:44:31.861Z,-2.90
2019-01-25T00:47:01.588Z,-2.90
2019-01-25T00:49:30.774Z,-2.90
2019-01-25T00:51:59.833Z,-2.90
2019-01-25T00:54:28.949Z,-2.90
2019-01-25T00:56:58.255Z,-3.00
2019-01-25T00:59:28.481Z,-2.90
2019-01-25T01:01:57.903Z,-3.00
2019-01-25T01:04:27.001Z,-2.80
2019-01-25T01:06:56.052Z,-2.80
2019-01-25T01:09:25.105Z,-2.80
2019-01-25T01:11:54.281Z,-2.80
2019-01-25T01:14:23.462Z,-2.80
2019-01-25T01:16:52.747Z,-2.80
2019-01-25T01:19:21.983Z,-2.80
2019-01-25T01:21:51.374Z,-2.80
2019-01-25T01:24:20.695Z,-2.70
2019-01-25T01:26:49.854Z,-2.70
2019-01-25T01:29:18.992Z,-2.70
2019-01-25T01:31:48.280Z,-2.70
2019-01-25T01:34:17.345Z,-2.70
2019-01-25T01:36:46.377Z,-2.70
2019-01-25T01:39:15.547Z,-2.80
2019-01-25T01:41:44.845Z,-2.80
2019-01-25T01:44:14.010Z,-2.80
2019-01-25T01:46:44.268Z,-2.80
2019-01-25T01:49:13.359Z,-2.80
2019-01-25T01:51:42.658Z,-2.80
2019-01-25T01:54:12.464Z,-2.80
2019-01-25T01:56:41.618Z,-2.80
2019-01-25T01:59:10.974Z,-2.80
2019-01-25T02:01:40.303Z,-2.70
2019-01-25T02:04:09.354Z,-2.70
2019-01-25T02:06:38.684Z,-2.80
2019-01-25T02:09:08.646Z,-2.80
2019-01-25T02:11:38.570Z,-2.80
2019-01-25T02:14:07.664Z,-2.70
2019-01-25T02:16:37.897Z,-2.80
2019-01-25T02:19:07.373Z,-2.70
2019-01-25T02:21:36.546Z,-2.70
2019-01-25T02:24:05.878Z,-2.70
2019-01-25T02:26:35.027Z,-2.80
2019-01-25T02:29:04.371Z,-2.80
2019-01-25T02:31:37.505Z,-2.90
2019-01-25T02:34:06.762Z,-2.90
2019-01-25T02:36:35.797Z,-2.80
2019-01-25T02:39:07.848Z,-2.80
2019-01-25T02:41:37.347Z,-2.80
2019-01-25T02:44:06.654Z,-2.80
2019-01-25T02:46:35.767Z,-2.70
2019-01-25T02:49:05.096Z,-2.60
2019-01-25T02:51:34.888Z,-2.60
2019-01-25T02:54:04.690Z,-2.60
2019-01-25T02:56:33.934Z,-2.60
2019-01-25T02:59:03.038Z,-2.60
2019-01-25T03:01:32.617Z,-2.60
2019-01-25T03:04:01.824Z,-2.50
2019-01-25T03:06:31.081Z,-2.60
2019-01-25T03:09:00.362Z,-2.60
2019-01-25T03:11:29.584Z,-2.60
2019-01-25T03:13:58.691Z,-2.70
2019-01-25T03:16:27.783Z,-2.70
2019-01-25T03:18:56.850Z,-2.90
2019-01-25T03:21:26.069Z,-2.90
2019-01-25T03:23:55.538Z,-2.80
2019-01-25T03:26:24.826Z,-2.80
2019-01-25T03:28:53.987Z,-2.80
2019-01-25T03:31:23.064Z,-2.80
2019-01-25T03:33:52.650Z,-2.70
2019-01-25T03:36:21.818Z,-2.70
2019-01-25T03:38:51.069Z,-2.60
2019-01-25T03:41:20.326Z,-2.70
2019-01-25T03:43:50.458Z,-2.70
2019-01-25T03:46:19.588Z,-2.70
2019-01-25T03:48:48.782Z,-2.70
2019-01-25T03:51:18.283Z,-2.70
2019-01-25T03:53:47.466Z,-2.70
2019-01-25T03:56:16.685Z,-2.70
2019-01-25T03:58:46.085Z,-2.70
2019-01-25T04:01:15.953Z,-2.70
2019-01-25T04:03:45.261Z,-2.70
2019-01-25T04:06:14.326Z,-2.70
2019-01-25T04:08:43.464Z,-2.70
2019-01-25T04:11:12.564Z,-2.80
2019-01-25T04:13:41.725Z,-2.70
2019-01-25T04:16:10.924Z,-2.60
2019-01-25T04:18:40.565Z,-2.60
2019-01-25T04:21:09.704Z,-2.60
2019-01-25T04:23:38.941Z,-2.60
2019-01-25T04:26:08.256Z,-2.60
2019-01-25T04:28:37.526Z,-2.60
2019-01-25T04:31:06.888Z,-2.70
2019-01-25T04:33:36.038Z,-2.80
2019-01-25T04:36:05.207Z,-2.80
2019-01-25T04:38:34.542Z,-2.80
2019-01-25T04:41:11.223Z,-2.70
2019-01-25T04:43:33.727Z,-2.80
2019-01-25T04:46:02.870Z,-2.80
2019-01-25T04:48:32.183Z,-2.80
2019-01-25T04:51:05.117Z,-2.80
2019-01-25T04:53:35.908Z,-2.70
2019-01-25T04:56:05.580Z,-2.70
2019-01-25T04:58:34.818Z,-2.70
2019-01-25T05:01:08.069Z,-2.70
2019-01-25T05:03:38.101Z,-2.70
2019-01-25T05:06:13.649Z,-2.80
2019-01-25T05:08:44.323Z,-2.80
2019-01-25T05:11:20.035Z,-2.80
2019-01-25T05:13:45.309Z,-2.70
2019-01-25T05:16:15.213Z,-2.70
2019-01-25T05:18:44.556Z,-2.70
2019-01-25T05:21:25.312Z,-2.70
2019-01-25T05:23:54.521Z,-2.60
2019-01-25T05:26:23.809Z,-2.60
2019-01-25T05:28:53.258Z,-2.60
2019-01-25T05:31:28.497Z,-2.60
2019-01-25T05:33:59.244Z,-2.50
2019-01-25T05:36:27.331Z,-2.60
2019-01-25T05:38:56.610Z,-2.60
2019-01-25T05:41:28.622Z,-2.60
2019-01-25T05:43:55.506Z,-2.60
2019-01-25T05:46:25.080Z,-2.60
2019-01-25T05:48:54.544Z,-2.60
2019-01-25T05:51:23.780Z,-2.40
2019-01-25T05:53:53.638Z,-2.50
2019-01-25T05:56:23.758Z,-2.60
2019-01-25T05:58:53.137Z,-2.60
2019-01-25T06:01:22.435Z,-2.60
2019-01-25T06:03:52.002Z,-2.60
2019-01-25T06:06:21.343Z,-2.60
2019-01-25T06:08:50.640Z,-2.60
2019-01-25T06:11:19.779Z,-2.60
2019-01-25T06:13:49.106Z,-2.60
2019-01-25T06:16:18.525Z,-2.60
2019-01-25T06:18:47.634Z,-2.60
2019-01-25T06:21:16.659Z,-2.70
2019-01-25T06:23:45.764Z,-2.60
2019-01-25T06:26:15.028Z,-2.60
2019-01-25T06:28:45.418Z,-2.60
2019-01-25T06:31:15.002Z,-2.60
2019-01-25T06:33:44.272Z,-2.60
2019-01-25T06:36:13.879Z,-2.60
2019-01-25T06:38:43.452Z,-2.60
2019-01-25T06:41:12.815Z,-2.60
2019-01-25T06:43:41.897Z,-2.60
2019-01-25T06:46:10.940Z,-2.50
2019-01-25T06:48:40.082Z,-2.50
2019-01-25T06:51:09.146Z,-2.50
2019-01-25T06:53:39.022Z,-2.50
2019-01-25T06:56:08.143Z,-2.50
2019-01-25T06:58:49.413Z,-2.50
2019-01-25T07:01:24.202Z,-2.50
2019-01-25T07:03:53.322Z,-2.50
2019-01-25T07:06:22.529Z,-2.50
2019-01-25T07:08:52.698Z,-2.40
2019-01-25T07:11:21.838Z,-2.30
2019-01-25T07:13:50.990Z,-2.30
2019-01-25T07:16:20.166Z,-2.30
2019-01-25T07:18:49.573Z,-2.30
2019-01-25T07:21:18.646Z,-2.40
2019-01-25T07:23:48.081Z,-2.50
2019-01-25T07:26:17.153Z,-2.50
2019-01-25T07:28:46.301Z,-2.40
2019-01-25T07:31:15.474Z,-2.40
2019-01-25T07:33:44.588Z,-2.40
2019-01-25T07:36:13.710Z,-2.40
2019-01-25T07:38:42.910Z,-2.40
2019-01-25T07:41:12.252Z,-2.40
2019-01-25T07:43:41.645Z,-2.30
2019-01-25T07:46:10.830Z,-2.30
2019-01-25T07:48:39.825Z,-2.30
2019-01-25T07:51:10.003Z,-2.30
2019-01-25T07:53:39.165Z,-2.30
2019-01-25T07:56:08.281Z,-2.30
2019-01-25T07:58:37.515Z,-2.30
2019-01-25T08:01:06.502Z,-2.20
2019-01-25T08:03:35.714Z,-2.30
2019-01-25T08:06:04.760Z,-2.30
2019-01-25T08:08:33.857Z,-2.30
2019-01-25T08:11:02.981Z,-2.30
2019-01-25T08:13:32.070Z,-2.30
2019-01-25T08:16:01.252Z,-2.20
2019-01-25T08:18:30.250Z,-2.10
2019-01-25T08:21:02.249Z,-2.20
2019-01-25T08:23:32.656Z,-2.10
2019-01-25T08:26:01.698Z,-2.10
2019-01-25T08:28:31.738Z,-2.20
2019-01-25T08:31:01.044Z,-2.10
2019-01-25T08:33:30.328Z,-2.10
2019-01-25T08:35:59.498Z,-2.10
2019-01-25T08:38:28.431Z,-2.00
2019-01-25T08:40:57.473Z,-2.20
2019-01-25T08:43:26.724Z,-2.10
2019-01-25T08:45:55.929Z,-2.20
2019-01-25T08:48:25.122Z,-2.20
2019-01-25T08:50:54.352Z,-2.10
2019-01-25T08:53:23.985Z,-2.20
2019-01-25T08:55:53.136Z,-2.20
2019-01-25T08:58:22.161Z,-2.20
2019-01-25T09:00:51.973Z,-2.10
2019-01-25T09:03:22.379Z,-2.10
2019-01-25T09:05:51.809Z,-2.00
2019-01-25T09:08:21.059Z,-1.80
2019-01-25T09:10:50.149Z,-1.30
2019-01-25T09:13:19.205Z,-0.40
2019-01-25T09:15:48.320Z,0.20
2019-01-25T09:18:17.315Z,0.50
2019-01-25T09:20:46.295Z,1.00
2019-01-25T09:23:15.278Z,1.60
2019-01-25T09:25:44.328Z,2.00
2019-01-25T09:28:13.356Z,1.90
2019-01-25T09:30:42.438Z,1.00
2019-01-25T09:33:11.558Z,0.90
2019-01-25T09:35:40.625Z,1.00
2019-01-25T09:38:09.694Z,0.80
2019-01-25T09:40:38.707Z,0.40
2019-01-25T09:43:07.685Z,-0.20
2019-01-25T09:45:36.877Z,-0.30
2019-01-25T09:48:06.212Z,-0.20
2019-01-25T09:50:35.501Z,-0.20
2019-01-25T09:53:04.490Z,-0.50
2019-01-25T09:55:33.768Z,-0.70
2019-01-25T09:58:05.340Z,-0.90
2019-01-25T10:00:38.483Z,-1.30
2019-01-25T10:03:08.845Z,-1.00
2019-01-25T10:05:37.962Z,-0.10
2019-01-25T10:08:07.078Z,0.70
2019-01-25T10:10:36.167Z,1.20
2019-01-25T10:13:05.695Z,0.70
2019-01-25T10:15:34.725Z,0.00
2019-01-25T10:18:04.237Z,-0.50
2019-01-25T10:20:33.224Z,-0.70
2019-01-25T10:23:02.301Z,-1.00
2019-01-25T10:25:32.386Z,-1.40
2019-01-25T10:28:01.433Z,-1.30
2019-01-25T10:30:30.493Z,-1.30
2019-01-25T10:33:00.582Z,-0.80
2019-01-25T10:35:28.893Z,-0.80
2019-01-25T10:37:57.824Z,-0.90
2019-01-25T10:40:26.912Z,-1.10
2019-01-25T10:42:55.911Z,-1.10
2019-01-25T10:45:29.264Z,-1.30
2019-01-25T10:47:58.339Z,-1.30
2019-01-25T10:50:27.442Z,-1.40
2019-01-25T10:52:56.554Z,-1.30
2019-01-25T10:55:25.515Z,-1.40
2019-01-25T10:57:54.629Z,-1.30
2019-01-25T11:00:23.708Z,-1.30
2019-01-25T11:02:58.111Z,-1.20
2019-01-25T11:05:23.289Z,-1.30
2019-01-25T11:07:52.404Z,-1.20
2019-01-25T11:10:22.205Z,-1.30
2019-01-25T11:12:51.253Z,-1.40
2019-01-25T11:15:21.647Z,-1.30
2019-01-25T11:17:50.901Z,-1.40
2019-01-25T11:20:21.611Z,-1.50
2019-01-25T11:22:50.828Z,-1.50
2019-01-25T11:25:25.779Z,-1.50
2019-01-25T11:27:54.984Z,-1.40
2019-01-25T11:30:24.089Z,-1.40
2019-01-25T11:32:53.443Z,-1.30
2019-01-25T11:35:22.479Z,-1.30
2019-01-25T11:37:51.595Z,-1.30
2019-01-25T11:40:26.200Z,-1.10
2019-01-25T11:42:55.517Z,-1.00
2019-01-25T11:45:24.575Z,-0.70
2019-01-25T11:47:53.618Z,-0.50
2019-01-25T11:50:22.773Z,-0.70
2019-01-25T11:52:52.597Z,-0.70
2019-01-25T11:55:21.739Z,-0.50
2019-01-25T11:57:50.779Z,-0.60
2019-01-25T12:00:23.179Z,-0.70
2019-01-25T12:03:00.035Z,-0.60
2019-01-25T12:05:29.089Z,-0.60
2019-01-25T12:07:59.429Z,-0.60
2019-01-25T12:10:29.555Z,-0.60
2019-01-25T12:12:58.558Z,-0.50
2019-01-25T12:15:28.113Z,-0.10
2019-01-25T12:17:57.318Z,0.20
2019-01-25T12:20:28.551Z,0.10
2019-01-25T12:22:57.591Z,0.00
2019-01-25T12:25:27.043Z,-0.10
2019-01-25T12:27:56.238Z,-0.30
2019-01-25T12:30:29.049Z,-0.40
2019-01-25T12:32:58.209Z,-0.60
2019-01-25T12:35:28.243Z,-0.80
2019-01-25T12:37:57.343Z,-0.80
2019-01-25T12:40:26.487Z,-0.90
2019-01-25T12:42:55.735Z,-0.90
2019-01-25T12:45:26.974Z,-0.80
2019-01-25T12:47:56.139Z,-0.80
2019-01-25T12:50:28.627Z,-1.00
2019-01-25T12:52:58.347Z,-1.00
2019-01-25T12:55:27.422Z,-1.00
2019-01-25T12:57:56.572Z,-1.00
2019-01-25T13:00:25.638Z,-1.10
2019-01-25T13:02:54.781Z,-1.10
2019-01-25T13:05:24.017Z,-1.10
2019-01-25T13:07:54.061Z,-1.20
2019-01-25T13:10:23.547Z,-1.20
2019-01-25T13:12:52.669Z,-1.20
2019-01-25T13:15:21.881Z,-1.10
2019-01-25T13:17:51.035Z,-1.00
2019-01-25T13:20:22.183Z,-0.80
2019-01-25T13:22:51.421Z,-0.70
2019-01-25T13:25:20.823Z,-0.70
2019-01-25T13:27:53.393Z,-0.70
2019-01-25T13:30:25.150Z,-0.60
2019-01-25T13:32:54.299Z,-0.70
2019-01-25T13:35:23.557Z,-1.00
2019-01-25T13:37:52.969Z,-1.00
2019-01-25T13:40:23.243Z,-0.90
2019-01-25T13:42:52.540Z,-0.90
2019-01-25T13:45:22.229Z,-1.00
2019-01-25T13:47:51.621Z,-0.90
2019-01-25T13:50:24.858Z,-0.90
2019-01-25T13:52:54.833Z,-0.90
2019-01-25T13:55:24.733Z,-0.80
2019-01-25T13:58:00.938Z,-1.10
2019-01-25T14:00:32.180Z,-1.00
2019-01-25T14:03:02.991Z,-1.10
2019-01-25T14:05:32.379Z,-1.00
2019-01-25T14:08:01.591Z,-0.90
2019-01-25T14:10:32.939Z,-1.00
2019-01-25T14:13:02.111Z,-0.80
2019-01-25T14:15:31.269Z,-1.10
2019-01-25T14:18:01.541Z,-1.10
2019-01-25T14:20:31.415Z,-1.10
2019-01-25T14:23:00.497Z,-1.00
2019-01-25T14:25:29.878Z,-1.00
2019-01-25T14:27:59.137Z,-1.10
2019-01-25T14:30:31.687Z,-1.10
2019-01-25T14:33:00.739Z,-1.30
2019-01-25T14:35:29.732Z,-1.40
2019-01-25T14:37:58.866Z,-1.40
2019-01-25T14:40:28.081Z,-1.40
2019-01-25T14:42:57.302Z,-1.20
2019-01-25T14:45:26.378Z,-1.20
2019-01-25T14:47:55.394Z,-1.20
2019-01-25T14:50:25.332Z,-1.30
2019-01-25T14:52:54.986Z,-1.30
2019-01-25T14:55:24.049Z,-1.30
2019-01-25T14:57:53.062Z,-1.50
2019-01-25T15:00:22.152Z,-1.70
2019-01-25T15:02:51.245Z,-1.60
2019-01-25T15:05:21.567Z,-1.60
2019-01-25T15:07:50.609Z,-1.70
2019-01-25T15:10:21.985Z,-1.60
2019-01-25T15:12:52.615Z,-1.60
2019-01-25T15:15:21.684Z,-1.70
2019-01-25T15:17:50.725Z,-1.70
2019-01-25T15:20:21.427Z,-1.80
2019-01-25T15:22:50.650Z,-1.70
2019-01-25T15:25:19.846Z,-1.70
2019-01-25T15:27:48.962Z,-1.70
2019-01-25T15:30:20.514Z,-1.70
2019-01-25T15:32:49.712Z,-1.60
2019-01-25T15:35:20.032Z,-1.70
2019-01-25T15:37:49.815Z,-1.80
2019-01-25T15:40:19.312Z,-1.90
2019-01-25T15:42:48.361Z,-1.80
2019-01-25T15:45:18.605Z,-1.80
2019-01-25T15:47:47.594Z,-1.80
2019-01-25T15:50:19.065Z,-1.80
2019-01-25T15:52:49.144Z,-1.80
2019-01-25T15:55:18.509Z,-1.80
2019-01-25T15:57:47.740Z,-1.80
2019-01-25T16:00:19.474Z,-1.80
2019-01-25T16:02:48.610Z,-1.90
2019-01-25T16:05:18.801Z,-1.90
2019-01-25T16:07:49.760Z,-1.80
2019-01-25T16:10:18.788Z,-1.80
2019-01-25T16:12:47.779Z,-1.80
2019-01-25T16:15:19.865Z,-1.90
2019-01-25T16:17:48.897Z,-1.90
2019-01-25T16:20:18.037Z,-1.90
2019-01-25T16:22:47.152Z,-1.90
2019-01-25T16:25:18.601Z,-1.80
2019-01-25T16:27:47.739Z,-1.80
2019-01-25T16:30:19.665Z,-1.80
2019-01-25T16:32:49.013Z,-1.80
2019-01-25T16:35:18.089Z,-1.90
2019-01-25T16:37:47.147Z,-1.90
2019-01-25T16:40:17.655Z,-1.90
2019-01-25T16:42:46.778Z,-1.90
2019-01-25T16:45:20.277Z,-1.80
2019-01-25T16:47:49.427Z,-1.90
2019-01-25T16:50:23.595Z,-1.80
2019-01-25T16:52:47.722Z,-1.80
2019-01-25T16:55:16.765Z,-1.80
2019-01-25T16:57:45.811Z,-1.90
2019-01-25T17:00:19.711Z,-1.90
2019-01-25T17:02:48.762Z,-1.80
2019-01-25T17:05:17.950Z,-1.90
2019-01-25T17:07:46.998Z,-1.80
2019-01-25T17:10:16.277Z,-1.80
2019-01-25T17:12:45.459Z,-1.90
2019-01-25T17:15:14.676Z,-1.90
2019-01-25T17:17:43.715Z,-1.90
2019-01-25T17:20:18.448Z,-1.80
2019-01-25T17:22:42.403Z,-1.80
2019-01-25T17:25:11.602Z,-1.80
2019-01-25T17:27:40.626Z,-1.90
2019-01-25T17:30:27.854Z,-1.90
2019-01-25T17:32:58.287Z,-1.80
2019-01-25T17:35:27.474Z,-1.90
2019-01-25T17:37:56.541Z,-1.90
2019-01-25T17:40:28.754Z,-1.90
2019-01-25T17:42:57.929Z,-1.90
2019-01-25T17:45:27.012Z,-1.90
2019-01-25T17:47:56.206Z,-1.90
2019-01-25T17:50:25.221Z,-1.90
2019-01-25T17:52:54.178Z,-1.80
2019-01-25T17:55:23.617Z,-1.80
2019-01-25T17:57:52.834Z,-1.90
2019-01-25T18:00:28.248Z,-1.80
2019-01-25T18:02:57.498Z,-1.80
2019-01-25T18:05:26.579Z,-1.80
2019-01-25T18:07:55.577Z,-1.80
2019-01-25T18:10:24.785Z,-1.70
2019-01-25T18:12:54.116Z,-1.70
2019-01-25T18:15:23.406Z,-1.80
2019-01-25T18:17:52.466Z,-1.80
2019-01-25T18:20:21.665Z,-1.80
2019-01-25T18:22:50.769Z,-1.80
2019-01-25T18:25:26.679Z,-1.80
2019-01-25T18:27:59.498Z,-1.80
2019-01-25T18:30:37.249Z,-1.80
2019-01-25T18:33:06.465Z,-1.80
2019-01-25T18:35:35.739Z,-1.80
2019-01-25T18:38:05.200Z,-1.80
2019-01-25T18:40:34.394Z,-1.70
2019-01-25T18:43:03.508Z,-1.80
2019-01-25T18:45:32.600Z,-1.80
2019-01-25T18:48:02.672Z,-1.80
2019-01-25T18:50:31.914Z,-1.70
2019-01-25T18:53:00.953Z,-1.70
2019-01-25T18:55:34.959Z,-1.70
2019-01-25T18:58:04.071Z,-1.70
2019-01-25T19:00:33.247Z,-1.70
2019-01-25T19:03:02.675Z,-1.70
2019-01-25T19:05:32.164Z,-1.70
2019-01-25T19:08:01.196Z,-1.70
2019-01-25T19:10:30.409Z,-1.60
2019-01-25T19:12:59.599Z,-1.70
2019-01-25T19:15:29.360Z,-1.70
2019-01-25T19:17:59.610Z,-1.60
2019-01-25T19:20:28.936Z,-1.70
2019-01-25T19:22:58.405Z,-1.70
2019-01-25T19:25:27.360Z,-1.70
2019-01-25T19:27:56.533Z,-1.60
2019-01-25T19:30:27.917Z,-1.60
2019-01-25T19:32:56.925Z,-1.60
2019-01-25T19:35:25.915Z,-1.70
2019-01-25T19:37:55.056Z,-1.60
2019-01-25T19:40:25.360Z,-1.60
2019-01-25T19:42:54.348Z,-1.60
2019-01-25T19:45:23.468Z,-1.60
2019-01-25T19:47:52.735Z,-1.60
2019-01-25T19:50:21.890Z,-1.60
2019-01-25T19:52:50.999Z,-1.70
2019-01-25T19:55:23.170Z,-1.70
2019-01-25T19:57:52.645Z,-1.80
2019-01-25T20:00:27.315Z,-1.80
2019-01-25T20:02:56.695Z,-1.70
2019-01-25T20:05:28.871Z,-1.70
2019-01-25T20:07:58.103Z,-1.70
2019-01-25T20:10:27.193Z,-1.70
2019-01-25T20:12:56.499Z,-1.80
2019-01-25T20:15:25.630Z,-1.80
2019-01-25T20:17:54.762Z,-1.80
2019-01-25T20:20:27.172Z,-1.80
2019-01-25T20:22:56.275Z,-1.70
2019-01-25T20:25:25.820Z,-1.70
2019-01-25T20:27:55.047Z,-1.80
2019-01-25T20:30:26.545Z,-1.80
2019-01-25T20:32:56.066Z,-1.80
2019-01-25T20:35:28.099Z,-1.80
2019-01-25T20:37:57.179Z,-1.80
2019-01-25T20:40:26.304Z,-1.80
2019-01-25T20:42:55.409Z,-1.80
2019-01-25T20:46:27.411Z,-1.80
2019-01-25T20:48:56.623Z,-1.80
2019-01-25T20:51:26.067Z,-1.80
2019-01-25T20:53:55.169Z,-1.80
2019-01-25T20:56:24.507Z,-1.80
2019-01-25T20:58:53.737Z,-1.80
2019-01-25T21:01:23.389Z,-1.80
2019-01-25T21:03:52.658Z,-1.70
2019-01-25T21:06:21.867Z,-1.70
2019-01-25T21:08:51.017Z,-1.70
2019-01-25T21:11:20.068Z,-1.70
2019-01-25T21:13:49.131Z,-1.80
2019-01-25T21:16:18.508Z,-1.80
2019-01-25T21:18:53.653Z,-1.80
2019-01-25T21:21:26.029Z,-1.80
2019-01-25T21:23:55.283Z,-1.80
2019-01-25T21:26:24.925Z,-1.80
2019-01-25T21:28:54.424Z,-1.80
2019-01-25T21:31:23.558Z,-1.80
2019-01-25T21:33:52.650Z,-1.80
2019-01-25T21:36:21.727Z,-1.80
2019-01-25T21:38:50.740Z,-1.80
2019-01-25T21:41:19.817Z,-1.80
2019-01-25T21:43:48.830Z,-1.80
2019-01-25T21:46:18.108Z,-1.80
2019-01-25T21:48:47.255Z,-1.80
2019-01-25T21:51:16.537Z,-1.80
2019-01-25T21:53:45.680Z,-1.80
2019-01-25T21:56:15.447Z,-1.90
2019-01-25T21:58:44.727Z,-1.90
2019-01-25T22:01:13.729Z,-1.80
2019-01-25T22:03:42.795Z,-1.80
2019-01-25T22:06:12.070Z,-1.80
2019-01-25T22:08:45.770Z,-1.80
2019-01-25T22:11:14.813Z,-1.80
2019-01-25T22:13:43.972Z,-1.80
2019-01-25T22:18:48.160Z,-1.90
2019-01-25T22:21:17.488Z,-1.80
2019-01-25T22:23:46.603Z,-1.80
2019-01-25T22:26:16.559Z,-1.70
2019-01-25T22:28:45.824Z,-1.70
2019-01-25T22:31:14.871Z,-1.80
2019-01-25T22:33:44.065Z,-1.80
2019-01-25T22:36:13.274Z,-1.80
2019-01-25T22:38:42.648Z,-1.80
2019-01-25T22:41:11.822Z,-1.70
2019-01-25T22:43:40.912Z,-1.80
2019-01-25T22:46:10.871Z,-1.80
2019-01-25T22:48:39.878Z,-1.80
2019-01-25T22:51:11.198Z,-1.70
2019-01-25T22:53:40.633Z,-1.70
2019-01-25T22:56:09.984Z,-1.70
2019-01-25T22:58:39.609Z,-1.80
2019-01-25T23:01:19.856Z,-1.80
2019-01-25T23:04:04.769Z,-1.80
2019-01-25T23:07:36.521Z,-1.80
2019-01-25T23:10:12.073Z,-1.80
2019-01-25T23:12:41.485Z,-1.80
2019-01-25T23:15:13.485Z,-1.80
2019-01-25T23:17:44.237Z,-1.80
2019-01-25T23:22:41.565Z,-1.90
2019-01-25T23:25:11.233Z,-1.90
2019-01-25T23:27:40.400Z,-1.90
2019-01-25T23:30:15.817Z,-1.80
2019-01-25T23:32:45.282Z,-1.90
2019-01-25T23:35:14.358Z,-1.90
2019-01-25T23:37:43.524Z,-2.00
2019-01-25T23:40:14.934Z,-2.00
2019-01-25T23:42:44.645Z,-2.00
2019-01-25T23:45:13.902Z,-2.00
2019-01-25T23:47:43.131Z,-2.00
2019-01-25T23:50:12.501Z,-2.10
2019-01-25T23:52:41.689Z,-2.10
2019-01-25T23:55:10.821Z,-2.10
2019-01-25T23:57:40.031Z,-2.10
